sensor_id;sensor_type;location;lat;lon;timestamp;pressure;altitude;pressure_sealevel;temperature;humidity
21960;BME280;11144;43.030;25.108;2023-11-19T00:01:28;99216.31;;;3.93;77.99
21960;BME280;11144;43.030;25.108;2023-11-19T00:03:00;99225.59;;;3.95;77.82
21960;BME280;11144;43.030;25.108;2023-11-19T00:04:36;99220.16;;;3.98;77.77
21960;BME280;11144;43.030;25.108;2023-11-19T00:06:08;99214.69;;;3.92;77.41
21960;BME280;11144;43.030;25.108;2023-11-19T00:07:43;99229.03;;;3.96;77.66
21960;BME280;11144;43.030;25.108;2023-11-19T00:09:16;99220.25;;;3.97;77.85
21960;BME280;11144;43.030;25.108;2023-11-19T00:10:50;99221.09;;;3.97;77.67
21960;BME280;11144;43.030;25.108;2023-11-19T00:12:23;99220.25;;;3.97;77.20
21960;BME280;11144;43.030;25.108;2023-11-19T00:13:56;99213.47;;;3.96;77.56
21960;BME280;11144;43.030;25.108;2023-11-19T00:15:30;99223.53;;;3.99;77.61
21960;BME280;11144;43.030;25.108;2023-11-19T00:17:03;99225.47;;;3.97;77.20
21960;BME280;11144;43.030;25.108;2023-11-19T00:18:36;99216.75;;;3.88;77.27
21960;BME280;11144;43.030;25.108;2023-11-19T00:20:10;99236.50;;;3.99;77.68
21960;BME280;11144;43.030;25.108;2023-11-19T00:21:42;99240.75;;;4.00;77.59
21960;BME280;11144;43.030;25.108;2023-11-19T00:23:16;99227.63;;;4.01;77.59
21960;BME280;11144;43.030;25.108;2023-11-19T00:24:49;99236.66;;;3.97;77.40
21960;BME280;11144;43.030;25.108;2023-11-19T00:26:21;99227.09;;;3.98;77.45
21960;BME280;11144;43.030;25.108;2023-11-19T00:27:57;99223.53;;;3.99;77.44
21960;BME280;11144;43.030;25.108;2023-11-19T00:29:29;99229.03;;;3.96;77.41
21960;BME280;11144;43.030;25.108;2023-11-19T00:31:04;99228.34;;;3.94;77.28
21960;BME280;11144;43.030;25.108;2023-11-19T00:32:37;99226.13;;;3.99;77.57
21960;BME280;11144;43.030;25.108;2023-11-19T00:34:11;99217.00;;;3.95;77.90
21960;BME280;11144;43.030;25.108;2023-11-19T00:35:44;99223.41;;;4.00;77.67
21960;BME280;11144;43.030;25.108;2023-11-19T00:37:18;99227.63;;;4.01;77.49
21960;BME280;11144;43.030;25.108;2023-11-19T00:38:50;99237.06;;;4.02;77.16
21960;BME280;11144;43.030;25.108;2023-11-19T00:40:24;99218.66;;;3.96;77.12
21960;BME280;11144;43.030;25.108;2023-11-19T00:41:57;99241.16;;;4.05;76.86
21960;BME280;11144;43.030;25.108;2023-11-19T00:43:30;99226.78;;;4.01;76.99
21960;BME280;11144;43.030;25.108;2023-11-19T00:45:03;99236.91;;;4.04;76.98
21960;BME280;11144;43.030;25.108;2023-11-19T00:46:41;99232.78;;;4.11;77.07
21960;BME280;11144;43.030;25.108;2023-11-19T00:48:14;99222.28;;;4.03;76.59
21960;BME280;11144;43.030;25.108;2023-11-19T00:49:47;99219.25;;;4.07;76.90
21960;BME280;11144;43.030;25.108;2023-11-19T00:51:20;99234.13;;;4.15;76.66
21960;BME280;11144;43.030;25.108;2023-11-19T00:52:53;99228.94;;;4.15;76.64
21960;BME280;11144;43.030;25.108;2023-11-19T00:54:26;99225.69;;;4.13;76.24
21960;BME280;11144;43.030;25.108;2023-11-19T00:56:00;99219.66;;;4.12;76.48
21960;BME280;11144;43.030;25.108;2023-11-19T00:57:32;99228.78;;;4.16;76.32
21960;BME280;11144;43.030;25.108;2023-11-19T00:59:05;99232.88;;;4.19;76.25
21960;BME280;11144;43.030;25.108;2023-11-19T01:00:38;99231.94;;;4.20;76.03
21960;BME280;11144;43.030;25.108;2023-11-19T01:02:13;99233.84;;;4.18;75.91
21960;BME280;11144;43.030;25.108;2023-11-19T01:03:46;99237.94;;;4.20;75.92
21960;BME280;11144;43.030;25.108;2023-11-19T01:05:19;99249.13;;;4.21;76.02
21960;BME280;11144;43.030;25.108;2023-11-19T01:06:55;99245.56;;;4.22;76.09
21960;BME280;11144;43.030;25.108;2023-11-19T01:08:28;99244.09;;;4.19;76.01
21960;BME280;11144;43.030;25.108;2023-11-19T01:10:01;99247.50;;;4.20;76.07
21960;BME280;11144;43.030;25.108;2023-11-19T01:11:35;99247.50;;;4.20;75.93
21960;BME280;11144;43.030;25.108;2023-11-19T01:13:07;99232.59;;;4.22;75.77
21960;BME280;11144;43.030;25.108;2023-11-19T01:14:41;99230.00;;;4.22;75.72
21960;BME280;11144;43.030;25.108;2023-11-19T01:16:13;99237.13;;;4.20;75.35
21960;BME280;11144;43.030;25.108;2023-11-19T01:17:48;99230.84;;;4.22;75.40
21960;BME280;11144;43.030;25.108;2023-11-19T01:19:24;99242.00;;;4.23;74.60
21960;BME280;11144;43.030;25.108;2023-11-19T01:20:57;99243.66;;;4.24;75.01
21960;BME280;11144;43.030;25.108;2023-11-19T01:22:30;99240.91;;;4.25;75.02
21960;BME280;11144;43.030;25.108;2023-11-19T01:24:04;99239.28;;;4.24;74.99
21960;BME280;11144;43.030;25.108;2023-11-19T01:25:42;99253.88;;;4.25;75.06
21960;BME280;11144;43.030;25.108;2023-11-19T01:27:15;99259.75;;;4.27;74.58
21960;BME280;11144;43.030;25.108;2023-11-19T01:28:47;99245.81;;;4.28;74.85
21960;BME280;11144;43.030;25.108;2023-11-19T01:30:23;99250.84;;;4.30;75.01
21960;BME280;11144;43.030;25.108;2023-11-19T01:31:56;99257.69;;;4.31;74.47
21960;BME280;11144;43.030;25.108;2023-11-19T01:33:31;99250.69;;;4.31;74.98
21960;BME280;11144;43.030;25.108;2023-11-19T01:35:04;99256.72;;;4.32;74.76
21960;BME280;11144;43.030;25.108;2023-11-19T01:36:37;99248.25;;;4.30;73.20
21960;BME280;11144;43.030;25.108;2023-11-19T01:38:10;99246.06;;;4.35;74.41
21960;BME280;11144;43.030;25.108;2023-11-19T01:39:43;99259.88;;;4.35;74.45
21960;BME280;11144;43.030;25.108;2023-11-19T01:41:16;99252.59;;;4.39;74.63
21960;BME280;11144;43.030;25.108;2023-11-19T01:42:49;99246.88;;;4.35;74.39
21960;BME280;11144;43.030;25.108;2023-11-19T01:44:22;99260.22;;;4.40;74.60
21960;BME280;11144;43.030;25.108;2023-11-19T01:45:55;99258.59;;;4.39;74.58
21960;BME280;11144;43.030;25.108;2023-11-19T01:47:30;99250.44;;;4.34;72.96
21960;BME280;11144;43.030;25.108;2023-11-19T01:49:05;99248.50;;;4.36;74.37
21960;BME280;11144;43.030;25.108;2023-11-19T01:50:39;99247.41;;;4.39;74.18
21960;BME280;11144;43.030;25.108;2023-11-19T01:52:12;99254.25;;;4.40;74.16
21960;BME280;11144;43.030;25.108;2023-11-19T01:53:45;99244.13;;;4.37;74.08
21960;BME280;11144;43.030;25.108;2023-11-19T01:55:19;99253.69;;;4.36;74.01
21960;BME280;11144;43.030;25.108;2023-11-19T01:56:52;99257.13;;;4.37;73.92
21960;BME280;11144;43.030;25.108;2023-11-19T01:58:28;99246.75;;;4.37;73.92
21960;BME280;11144;43.030;25.108;2023-11-19T02:00:02;99247.13;;;4.42;73.86
21960;BME280;11144;43.030;25.108;2023-11-19T02:01:44;99251.66;;;4.40;73.64
21960;BME280;11144;43.030;25.108;2023-11-19T02:03:18;99259.13;;;4.43;73.93
21960;BME280;11144;43.030;25.108;2023-11-19T02:04:53;99261.22;;;4.39;73.66
21960;BME280;11144;43.030;25.108;2023-11-19T02:06:27;99257.63;;;4.40;73.72
21960;BME280;11144;43.030;25.108;2023-11-19T02:08:01;99253.94;;;4.43;73.61
21960;BME280;11144;43.030;25.108;2023-11-19T02:09:34;99262.41;;;4.45;73.68
21960;BME280;11144;43.030;25.108;2023-11-19T02:11:10;99254.91;;;4.42;73.47
21960;BME280;11144;43.030;25.108;2023-11-19T02:12:44;99254.09;;;4.41;73.14
21960;BME280;11144;43.030;25.108;2023-11-19T02:14:18;99248.75;;;4.43;73.49
21960;BME280;11144;43.030;25.108;2023-11-19T02:15:50;99244.38;;;4.43;73.48
21960;BME280;11144;43.030;25.108;2023-11-19T02:17:26;99243.88;;;4.40;73.35
21960;BME280;11144;43.030;25.108;2023-11-19T02:18:59;99219.06;;;4.28;72.76
21960;BME280;11144;43.030;25.108;2023-11-19T02:20:34;99241.38;;;4.38;72.78
21960;BME280;11144;43.030;25.108;2023-11-19T02:22:07;99239.63;;;4.39;72.58
21960;BME280;11144;43.030;25.108;2023-11-19T02:23:40;99240.28;;;4.41;72.71
21960;BME280;11144;43.030;25.108;2023-11-19T02:25:17;99234.44;;;4.39;72.85
21960;BME280;11144;43.030;25.108;2023-11-19T02:26:59;99244.66;;;4.40;72.74
21960;BME280;11144;43.030;25.108;2023-11-19T02:28:36;99229.09;;;4.40;72.53
21960;BME280;11144;43.030;25.108;2023-11-19T02:30:11;99223.09;;;4.40;72.06
21960;BME280;11144;43.030;25.108;2023-11-19T02:31:44;99238.94;;;4.37;71.66
21960;BME280;11144;43.030;25.108;2023-11-19T02:33:18;99242.22;;;4.39;72.59
21960;BME280;11144;43.030;25.108;2023-11-19T02:34:50;99241.53;;;4.37;71.86
21960;BME280;11144;43.030;25.108;2023-11-19T02:36:25;99199.63;;;4.32;72.11
21960;BME280;11144;43.030;25.108;2023-11-19T02:37:58;99234.84;;;4.34;72.48
21960;BME280;11144;43.030;25.108;2023-11-19T02:39:31;99239.91;;;4.36;72.39
21960;BME280;11144;43.030;25.108;2023-11-19T02:41:05;99248.38;;;4.38;72.52
21960;BME280;11144;43.030;25.108;2023-11-19T02:42:38;99251.09;;;4.36;72.13
21960;BME280;11144;43.030;25.108;2023-11-19T02:44:12;99255.19;;;4.39;72.43
21960;BME280;11144;43.030;25.108;2023-11-19T02:45:45;99243.31;;;4.36;71.87
21960;BME280;11144;43.030;25.108;2023-11-19T02:47:18;99237.84;;;4.39;72.38
21960;BME280;11144;43.030;25.108;2023-11-19T02:48:54;99240.59;;;4.38;71.70
21960;BME280;11144;43.030;25.108;2023-11-19T02:50:28;99237.59;;;4.33;72.13
21960;BME280;11144;43.030;25.108;2023-11-19T02:52:03;99248.22;;;4.39;72.40
21960;BME280;11144;43.030;25.108;2023-11-19T02:53:38;99235.41;;;4.38;70.92
21960;BME280;11144;43.030;25.108;2023-11-19T02:55:12;99243.19;;;4.38;71.56
21960;BME280;11144;43.030;25.108;2023-11-19T02:56:45;99253.41;;;4.39;71.63
21960;BME280;11144;43.030;25.108;2023-11-19T02:58:20;99238.69;;;4.40;71.79
21960;BME280;11144;43.030;25.108;2023-11-19T02:59:57;99249.59;;;4.34;70.88
21960;BME280;11144;43.030;25.108;2023-11-19T03:01:30;99243.75;;;4.32;71.54
21960;BME280;11144;43.030;25.108;2023-11-19T03:03:06;99259.03;;;4.35;71.83
21960;BME280;11144;43.030;25.108;2023-11-19T03:04:50;99245.50;;;4.31;71.87
21960;BME280;11144;43.030;25.108;2023-11-19T03:06:24;99259.72;;;4.37;71.88
21960;BME280;11144;43.030;25.108;2023-11-19T03:07:57;99249.47;;;4.35;71.80
21960;BME280;11144;43.030;25.108;2023-11-19T03:09:30;99244.41;;;4.34;71.29
21960;BME280;11144;43.030;25.108;2023-11-19T03:11:02;99250.44;;;4.34;71.01
21960;BME280;11144;43.030;25.108;2023-11-19T03:12:36;99236.50;;;4.35;71.63
21960;BME280;11144;43.030;25.108;2023-11-19T03:14:09;99231.31;;;4.35;70.87
21960;BME280;11144;43.030;25.108;2023-11-19T03:15:43;99237.47;;;4.34;71.05
21960;BME280;11144;43.030;25.108;2023-11-19T03:17:16;99249.59;;;4.34;71.23
21960;BME280;11144;43.030;25.108;2023-11-19T03:18:50;99235.97;;;4.32;70.93
21960;BME280;11144;43.030;25.108;2023-11-19T03:20:24;99241.81;;;4.34;71.31
21960;BME280;11144;43.030;25.108;2023-11-19T03:22:01;99258.38;;;4.33;70.30
21960;BME280;11144;43.030;25.108;2023-11-19T03:23:33;99236.16;;;4.21;70.41
21960;BME280;11144;43.030;25.108;2023-11-19T03:25:07;99265.47;;;4.31;71.25
21960;BME280;11144;43.030;25.108;2023-11-19T03:26:40;99274.63;;;4.35;71.17
21960;BME280;11144;43.030;25.108;2023-11-19T03:28:14;99280.47;;;4.37;71.52
21960;BME280;11144;43.030;25.108;2023-11-19T03:29:47;99288.78;;;4.40;71.57
21960;BME280;11144;43.030;25.108;2023-11-19T03:31:22;99290.44;;;4.41;71.41
21960;BME280;11144;43.030;25.108;2023-11-19T03:32:56;99289.59;;;4.41;71.64
21960;BME280;11144;43.030;25.108;2023-11-19T03:34:28;99282.66;;;4.41;71.40
21960;BME280;11144;43.030;25.108;2023-11-19T03:36:02;99277.59;;;4.40;71.19
21960;BME280;11144;43.030;25.108;2023-11-19T03:37:35;99287.16;;;4.39;71.41
21960;BME280;11144;43.030;25.108;2023-11-19T03:39:08;99294.13;;;4.39;71.18
21960;BME280;11144;43.030;25.108;2023-11-19T03:40:41;99285.50;;;4.38;71.28
21960;BME280;11144;43.030;25.108;2023-11-19T03:42:14;99281.31;;;4.37;71.45
21960;BME280;11144;43.030;25.108;2023-11-19T03:43:47;99281.81;;;4.41;70.88
21960;BME280;11144;43.030;25.108;2023-11-19T03:45:20;99289.31;;;4.44;71.38
21960;BME280;11144;43.030;25.108;2023-11-19T03:46:54;99290.59;;;4.40;70.44
21960;BME280;11144;43.030;25.108;2023-11-19T03:48:28;99288.25;;;4.37;71.07
21960;BME280;11144;43.030;25.108;2023-11-19T03:50:01;99301.25;;;4.37;71.09
21960;BME280;11144;43.030;25.108;2023-11-19T03:51:35;99300.13;;;4.39;71.16
21960;BME280;11144;43.030;25.108;2023-11-19T03:53:08;99307.78;;;4.41;71.01
21960;BME280;11144;43.030;25.108;2023-11-19T03:54:40;99296.44;;;4.42;71.06
21960;BME280;11144;43.030;25.108;2023-11-19T03:56:14;99309.53;;;4.40;70.65
21960;BME280;11144;43.030;25.108;2023-11-19T03:57:46;99302.56;;;4.41;70.92
21960;BME280;11144;43.030;25.108;2023-11-19T03:59:20;99305.84;;;4.43;70.89
21960;BME280;11144;43.030;25.108;2023-11-19T04:00:53;99300.66;;;4.43;70.90
21960;BME280;11144;43.030;25.108;2023-11-19T04:02:27;99302.44;;;4.42;71.02
21960;BME280;11144;43.030;25.108;2023-11-19T04:04:00;99309.28;;;4.43;71.08
21960;BME280;11144;43.030;25.108;2023-11-19T04:05:33;99311.72;;;4.45;70.98
21960;BME280;11144;43.030;25.108;2023-11-19T04:07:07;99321.72;;;4.40;70.71
21960;BME280;11144;43.030;25.108;2023-11-19T04:08:39;99318.16;;;4.41;70.68
21960;BME280;11144;43.030;25.108;2023-11-19T04:10:13;99318.97;;;4.41;70.71
21960;BME280;11144;43.030;25.108;2023-11-19T04:11:46;99316.38;;;4.41;70.83
21960;BME280;11144;43.030;25.108;2023-11-19T04:13:20;99321.41;;;4.43;70.87
21960;BME280;11144;43.030;25.108;2023-11-19T04:14:52;99316.09;;;4.44;70.81
21960;BME280;11144;43.030;25.108;2023-11-19T04:16:28;99325.78;;;4.42;70.63
21960;BME280;11144;43.030;25.108;2023-11-19T04:18:03;99317.47;;;4.39;70.31
21960;BME280;11144;43.030;25.108;2023-11-19T04:19:36;99324.75;;;4.35;70.53
21960;BME280;11144;43.030;25.108;2023-11-19T04:21:09;99327.03;;;4.38;70.58
21960;BME280;11144;43.030;25.108;2023-11-19T04:22:43;99348.63;;;4.39;70.27
21960;BME280;11144;43.030;25.108;2023-11-19T04:24:16;99345.19;;;4.38;70.58
21960;BME280;11144;43.030;25.108;2023-11-19T04:25:48;99338.25;;;4.39;70.34
21960;BME280;11144;43.030;25.108;2023-11-19T04:27:22;99348.63;;;4.39;70.48
21960;BME280;11144;43.030;25.108;2023-11-19T04:28:54;99349.72;;;4.36;70.00
21960;BME280;11144;43.030;25.108;2023-11-19T04:30:28;99344.94;;;4.32;70.54
21960;BME280;11144;43.030;25.108;2023-11-19T04:32:00;99359.16;;;4.37;70.67
21960;BME280;11144;43.030;25.108;2023-11-19T04:33:35;99350.16;;;4.32;70.52
21960;BME280;11144;43.030;25.108;2023-11-19T04:35:08;99349.88;;;4.35;70.31
21960;BME280;11144;43.030;25.108;2023-11-19T04:37:01;99356.56;;;4.37;69.69
21960;BME280;11144;43.030;25.108;2023-11-19T04:38:38;99358.34;;;4.37;70.37
21960;BME280;11144;43.030;25.108;2023-11-19T04:40:12;99350.97;;;4.32;70.19
21960;BME280;11144;43.030;25.108;2023-11-19T04:41:47;99346.88;;;4.30;69.88
21960;BME280;11144;43.030;25.108;2023-11-19T04:43:21;99352.06;;;4.30;69.63
21960;BME280;11144;43.030;25.108;2023-11-19T04:44:54;99372.81;;;4.30;70.07
21960;BME280;11144;43.030;25.108;2023-11-19T04:46:27;99366.28;;;4.26;68.80
21960;BME280;11144;43.030;25.108;2023-11-19T04:47:59;99369.81;;;4.25;69.58
21960;BME280;11144;43.030;25.108;2023-11-19T04:49:34;99348.53;;;4.12;69.62
21960;BME280;11144;43.030;25.108;2023-11-19T04:51:07;99358.75;;;4.23;69.95
21960;BME280;11144;43.030;25.108;2023-11-19T04:52:41;99366.28;;;4.26;69.56
21960;BME280;11144;43.030;25.108;2023-11-19T04:54:14;99366.81;;;4.29;69.73
21960;BME280;11144;43.030;25.108;2023-11-19T04:55:47;99365.34;;;4.27;69.69
21960;BME280;11144;43.030;25.108;2023-11-19T04:57:20;99374.22;;;4.24;69.66
21960;BME280;11144;43.030;25.108;2023-11-19T04:58:53;99380.19;;;4.25;69.94
21960;BME280;11144;43.030;25.108;2023-11-19T05:00:26;99395.78;;;4.25;69.91
21960;BME280;11144;43.030;25.108;2023-11-19T05:01:59;99394.41;;;4.21;69.84
21960;BME280;11144;43.030;25.108;2023-11-19T05:03:33;99396.22;;;4.20;69.66
21960;BME280;11144;43.030;25.108;2023-11-19T05:05:07;99400.56;;;4.20;69.65
21960;BME280;11144;43.030;25.108;2023-11-19T05:06:41;99391.69;;;4.22;69.67
21960;BME280;11144;43.030;25.108;2023-11-19T05:08:14;99402.19;;;4.21;69.63
21960;BME280;11144;43.030;25.108;2023-11-19T05:09:48;99400.44;;;4.21;69.95
21960;BME280;11144;43.030;25.108;2023-11-19T05:11:20;99391.28;;;4.17;69.89
21960;BME280;11144;43.030;25.108;2023-11-19T05:12:53;99402.34;;;4.19;69.88
21960;BME280;11144;43.030;25.108;2023-11-19T05:14:28;99389.94;;;4.13;69.72
21960;BME280;11144;43.030;25.108;2023-11-19T05:16:01;99390.47;;;4.17;69.80
21960;BME280;11144;43.030;25.108;2023-11-19T05:17:34;99409.59;;;4.16;69.37
21960;BME280;11144;43.030;25.108;2023-11-19T05:19:09;99382.84;;;4.15;69.52
21960;BME280;11144;43.030;25.108;2023-11-19T05:20:42;99398.25;;;4.17;69.49
21960;BME280;11144;43.030;25.108;2023-11-19T05:22:16;99390.63;;;4.15;69.39
21960;BME280;11144;43.030;25.108;2023-11-19T05:23:49;99404.53;;;4.14;68.79
21960;BME280;11144;43.030;25.108;2023-11-19T05:25:22;99400.16;;;4.15;69.56
21960;BME280;11144;43.030;25.108;2023-11-19T05:26:54;99403.69;;;4.14;69.57
21960;BME280;11144;43.030;25.108;2023-11-19T05:28:28;99409.88;;;4.13;69.56
21960;BME280;11144;43.030;25.108;2023-11-19T05:30:01;99398.13;;;4.09;69.06
21960;BME280;11144;43.030;25.108;2023-11-19T05:31:34;99403.84;;;4.12;69.54
21960;BME280;11144;43.030;25.108;2023-11-19T05:33:09;99401.41;;;4.11;69.44
21960;BME280;11144;43.030;25.108;2023-11-19T05:34:41;99407.94;;;4.15;69.48
21960;BME280;11144;43.030;25.108;2023-11-19T05:36:19;99398.13;;;4.09;69.27
21960;BME280;11144;43.030;25.108;2023-11-19T05:37:52;99399.63;;;4.11;69.69
21960;BME280;11144;43.030;25.108;2023-11-19T05:39:24;99394.31;;;4.13;69.28
21960;BME280;11144;43.030;25.108;2023-11-19T05:40:58;99398.66;;;4.12;69.31
21960;BME280;11144;43.030;25.108;2023-11-19T05:42:31;99401.66;;;4.08;69.22
21960;BME280;11144;43.030;25.108;2023-11-19T05:44:04;99395.81;;;4.06;69.59
21960;BME280;11144;43.030;25.108;2023-11-19T05:45:37;99390.34;;;4.09;69.01
21960;BME280;11144;43.030;25.108;2023-11-19T05:47:09;99406.31;;;4.14;69.46
21960;BME280;11144;43.030;25.108;2023-11-19T05:48:43;99392.66;;;4.12;68.92
21960;BME280;11144;43.030;25.108;2023-11-19T05:50:17;99397.72;;;4.13;69.53
21960;BME280;11144;43.030;25.108;2023-11-19T05:51:52;99403.69;;;4.14;69.41
21960;BME280;11144;43.030;25.108;2023-11-19T05:53:27;99401.00;;;4.15;69.35
21960;BME280;11144;43.030;25.108;2023-11-19T05:55:01;99405.34;;;4.15;69.29
21960;BME280;11144;43.030;25.108;2023-11-19T05:56:36;99397.03;;;4.11;69.40
21960;BME280;11144;43.030;25.108;2023-11-19T05:58:09;99390.34;;;4.09;69.51
21960;BME280;11144;43.030;25.108;2023-11-19T05:59:45;99414.38;;;4.20;69.32
21960;BME280;11144;43.030;25.108;2023-11-19T06:01:18;99409.97;;;4.21;69.48
21960;BME280;11144;43.030;25.108;2023-11-19T06:02:51;99404.25;;;4.17;68.87
21960;BME280;11144;43.030;25.108;2023-11-19T06:04:24;99412.56;;;4.21;69.19
21960;BME280;11144;43.030;25.108;2023-11-19T06:05:57;99387.31;;;4.23;69.36
21960;BME280;11144;43.030;25.108;2023-11-19T06:07:32;99399.06;;;4.27;69.02
21960;BME280;11144;43.030;25.108;2023-11-19T06:09:05;99402.34;;;4.29;69.03
21960;BME280;11144;43.030;25.108;2023-11-19T06:10:41;99400.00;;;4.26;68.86
21960;BME280;11144;43.030;25.108;2023-11-19T06:12:14;99397.81;;;4.31;69.18
21960;BME280;11144;43.030;25.108;2023-11-19T06:13:47;99402.03;;;4.32;69.24
21960;BME280;11144;43.030;25.108;2023-11-19T06:15:23;99423.91;;;4.29;68.88
21960;BME280;11144;43.030;25.108;2023-11-19T06:16:56;99407.22;;;4.32;69.23
21960;BME280;11144;43.030;25.108;2023-11-19T06:18:29;99399.59;;;4.30;68.34
21960;BME280;11144;43.030;25.108;2023-11-19T06:20:04;99411.34;;;4.25;68.38
21960;BME280;11144;43.030;25.108;2023-11-19T06:21:37;99423.47;;;4.34;68.94
21960;BME280;11144;43.030;25.108;2023-11-19T06:23:12;99422.94;;;4.40;68.71
21960;BME280;11144;43.030;25.108;2023-11-19T06:24:45;99410.75;;;4.40;68.23
21960;BME280;11144;43.030;25.108;2023-11-19T06:26:18;99419.78;;;4.46;68.96
21960;BME280;11144;43.030;25.108;2023-11-19T06:27:50;99409.41;;;4.46;68.94
21960;BME280;11144;43.030;25.108;2023-11-19T06:29:24;99415.28;;;4.48;68.92
21960;BME280;11144;43.030;25.108;2023-11-19T06:30:57;99418.69;;;4.48;68.90
21960;BME280;11144;43.030;25.108;2023-11-19T06:32:30;99421.28;;;4.48;68.76
21960;BME280;11144;43.030;25.108;2023-11-19T06:34:02;99420.31;;;4.49;68.88
21960;BME280;11144;43.030;25.108;2023-11-19T06:35:36;99428.34;;;4.56;68.73
21960;BME280;11144;43.030;25.108;2023-11-19T06:37:09;99435.22;;;4.47;68.43
21960;BME280;11144;43.030;25.108;2023-11-19T06:38:43;99446.56;;;4.46;68.14
21960;BME280;11144;43.030;25.108;2023-11-19T06:40:16;99444.75;;;4.47;68.15
21960;BME280;11144;43.030;25.108;2023-11-19T06:41:49;99435.88;;;4.49;68.17
21960;BME280;11144;43.030;25.108;2023-11-19T06:43:22;99437.69;;;4.49;68.13
21960;BME280;11144;43.030;25.108;2023-11-19T06:44:55;99436.03;;;4.48;68.29
21960;BME280;11144;43.030;25.108;2023-11-19T06:46:29;99435.09;;;4.49;68.10
21960;BME280;11144;43.030;25.108;2023-11-19T06:48:02;99427.16;;;4.51;68.36
21960;BME280;11144;43.030;25.108;2023-11-19T06:49:36;99430.56;;;4.51;68.18
21960;BME280;11144;43.030;25.108;2023-11-19T06:51:09;99420.56;;;4.56;67.49
21960;BME280;11144;43.030;25.108;2023-11-19T06:52:41;99439.41;;;4.58;68.28
21960;BME280;11144;43.030;25.108;2023-11-19T06:54:16;99442.56;;;4.62;67.86
21960;BME280;11144;43.030;25.108;2023-11-19T06:55:49;99431.94;;;4.55;66.16
21960;BME280;11144;43.030;25.108;2023-11-19T06:57:23;99442.84;;;4.59;67.58
21960;BME280;11144;43.030;25.108;2023-11-19T06:58:55;99443.00;;;4.57;67.43
21960;BME280;11144;43.030;25.108;2023-11-19T07:00:28;99439.66;;;4.65;67.98
21960;BME280;11144;43.030;25.108;2023-11-19T07:02:02;99425.59;;;4.67;68.15
21960;BME280;11144;43.030;25.108;2023-11-19T07:03:36;99431.03;;;4.74;67.77
21960;BME280;11144;43.030;25.108;2023-11-19T07:05:09;99433.63;;;4.83;67.78
21960;BME280;11144;43.030;25.108;2023-11-19T07:06:43;99416.69;;;4.79;67.95
21960;BME280;11144;43.030;25.108;2023-11-19T07:08:16;99435.88;;;4.96;67.83
21960;BME280;11144;43.030;25.108;2023-11-19T07:09:51;99445.06;;;5.00;67.88
21960;BME280;11144;43.030;25.108;2023-11-19T07:11:23;99441.63;;;4.99;67.72
21960;BME280;11144;43.030;25.108;2023-11-19T07:12:56;99455.72;;;4.97;66.95
21960;BME280;11144;43.030;25.108;2023-11-19T07:14:29;99453.50;;;5.02;67.42
21960;BME280;11144;43.030;25.108;2023-11-19T07:16:03;99450.50;;;5.06;67.65
21960;BME280;11144;43.030;25.108;2023-11-19T07:17:36;99449.63;;;5.15;67.37
21960;BME280;11144;43.030;25.108;2023-11-19T07:19:09;99461.50;;;5.18;66.72
21960;BME280;11144;43.030;25.108;2023-11-19T07:20:42;99461.06;;;5.22;67.34
21960;BME280;11144;43.030;25.108;2023-11-19T07:22:15;99459.13;;;5.24;65.94
21960;BME280;11144;43.030;25.108;2023-11-19T07:23:49;99467.91;;;5.23;67.18
21960;BME280;11144;43.030;25.108;2023-11-19T07:25:25;99467.91;;;5.23;66.73
21960;BME280;11144;43.030;25.108;2023-11-19T07:26:58;99476.78;;;5.31;67.23
21960;BME280;11144;43.030;25.108;2023-11-19T07:28:31;99476.88;;;5.39;67.50
21960;BME280;11144;43.030;25.108;2023-11-19T07:30:05;99476.88;;;5.39;66.58
21960;BME280;11144;43.030;25.108;2023-11-19T07:31:39;99475.59;;;5.43;67.24
21960;BME280;11144;43.030;25.108;2023-11-19T07:33:12;99479.84;;;5.44;66.14
21960;BME280;11144;43.030;25.108;2023-11-19T07:34:46;99486.69;;;5.45;66.87
21960;BME280;11144;43.030;25.108;2023-11-19T07:36:18;99483.13;;;5.46;66.03
21960;BME280;11144;43.030;25.108;2023-11-19T07:37:51;99485.06;;;5.44;65.87
21960;BME280;11144;43.030;25.108;2023-11-19T07:39:23;99482.75;;;5.41;66.25
21960;BME280;11144;43.030;25.108;2023-11-19T07:40:58;99472.53;;;5.30;66.29
21960;BME280;11144;43.030;25.108;2023-11-19T07:42:30;99509.88;;;5.56;66.34
21960;BME280;11144;43.030;25.108;2023-11-19T07:44:04;99499.44;;;5.65;65.71
21960;BME280;11144;43.030;25.108;2023-11-19T07:45:36;99500.78;;;5.69;65.91
21960;BME280;11144;43.030;25.108;2023-11-19T07:47:10;99490.63;;;5.76;65.98
21960;BME280;11144;43.030;25.108;2023-11-19T07:48:43;99484.78;;;5.91;64.03
21960;BME280;11144;43.030;25.108;2023-11-19T07:50:15;99482.56;;;5.97;65.79
21960;BME280;11144;43.030;25.108;2023-11-19T07:51:51;99495.53;;;6.06;65.96
21960;BME280;11144;43.030;25.108;2023-11-19T07:53:24;99494.47;;;6.17;66.02
21960;BME280;11144;43.030;25.108;2023-11-19T07:54:57;99495.75;;;6.30;65.93
21960;BME280;11144;43.030;25.108;2023-11-19T07:56:33;99490.88;;;6.35;65.36
21960;BME280;11144;43.030;25.108;2023-11-19T07:58:06;99491.53;;;6.37;65.29
21960;BME280;11144;43.030;25.108;2023-11-19T07:59:39;99496.31;;;6.42;65.65
21960;BME280;11144;43.030;25.108;2023-11-19T08:01:12;99500.34;;;6.36;65.28
21960;BME280;11144;43.030;25.108;2023-11-19T08:02:45;99506.16;;;6.30;64.67
21960;BME280;11144;43.030;25.108;2023-11-19T08:04:18;99499.59;;;6.26;65.02
21960;BME280;11144;43.030;25.108;2023-11-19T08:05:51;99506.94;;;6.31;65.28
21960;BME280;11144;43.030;25.108;2023-11-19T08:07:23;99504.56;;;6.37;65.00
21960;BME280;11144;43.030;25.108;2023-11-19T08:08:57;99502.78;;;6.38;62.76
21960;BME280;11144;43.030;25.108;2023-11-19T08:10:29;99507.50;;;6.34;64.78
21960;BME280;11144;43.030;25.108;2023-11-19T08:12:06;99505.25;;;6.39;64.79
21960;BME280;11144;43.030;25.108;2023-11-19T08:13:38;99506.66;;;6.51;64.88
21960;BME280;11144;43.030;25.108;2023-11-19T08:15:12;99508.09;;;6.46;64.67
21960;BME280;11144;43.030;25.108;2023-11-19T08:16:44;99512.09;;;6.40;64.58